Charlotte, NC (28287)

5:35 AM EDT on August 20, 2014 (GMT -0400)
Beverly Woods Neighborhood (PWS) | Change Station
CLOSE
Current Station
Personal Weather Station
Location: Charlotte, NC
Elevation: 684 ft
Nearby Weather Stations

Elev 684 ft 35.14 °N, 80.85 °W | Updated 17 seconds ago

Partly Cloudy
Partly Cloudy
70.0 °F
Feels Like 70.0 °F
N
0.0
Wind Variable Wind from NNW
Gusts 3.0 mph

Today
High -- | Low -- °F
--% Chance of Precip.
Yesterday
High -- | Low -- °F
Precip. -- in
6:47 AM 8:05 PM
Waning Crescent, 23% visible
Pressure 29.91 in
Visibility 7.0 miles
Clouds Few 25000 ft
Dew Point 67 °F
Humidity 90%
Rainfall 0.00 in
Snow Depth Not available.
UV 0 out of 12
Pollen 8.20 out of 12
Ozone Good
PM2.5 Good
Flu Activity Not available.
METAR KCLT 200852Z 00000KT 7SM FEW250 21/19 A2993 RMK AO2 SLP127 T02110194 51004 $

More Conditions Fewer Conditions

Pressure 29.91 in
Visibility 7.0 miles
Clouds Few 25000 ft
Dew Point 67 °F
Humidity 90%
Rainfall 0.00 in
Snow Depth Not available.
UV 0 out of 12
Pollen 8.20 out of 12
Ozone Good
PM2.5 Good
Flu Activity Not available.
METAR KCLT 200852Z 00000KT 7SM FEW250 21/19 A2993 RMK AO2 SLP127 T02110194 51004 $

More Conditions Fewer Conditions

10-Day Weather Forecast

Almanac

Astronomy

Aug. 20, 2014 Rise Set
Actual Time 6:47 AM EDT 8:05 PM EDT
Civil Twilight 6:20 AM EDT 8:32 PM EDT
Nautical Twilight 5:48 AM EDT 9:04 PM EDT
Astronomical Twilight 5:15 AM EDT 9:37 PM EDT
Moon 2:29 AM EDT 4:45 PM EDT
Length of Visible Light 14h 11m
Length of Day
13h 18m
Tomorrow will be 2m 0s shorter.
Waning Crescent, 23% of the Moon is Illuminated
Today
Waning Crescent
Aug 25
New
Sep 2
First Quarter
Sep 8
Full
Sep 15
Last Quarter

Today's Extremes

State Highs State Lows

Community

WunderPhotos

Upload Photos

1,745,604 photos uploaded!

Nearby

Air Quality

  Air Quality AQ Index Pollutant
Yesterday Moderate
PM2.5
Yesterday Good
OZONE
Current Good
PM2.5
Current Good
OZONE
Wednesday Moderate
OZONE
Wednesday Moderate
PM2.5
Thursday Moderate
PM2.5
Thursday Good
OZONE
Friday Moderate
PM2.5
Friday Good
OZONE

Snow Depth

Station Depth Elevation
No new snow has been reported.

Earthquake Activity

City Distance Mag. Time & Date
No recent earthquake activity has been reported nearby.
Minimum magnitude displayed is 2.5.

Coastal Water Temperatures

Place Temperature
No Stations Reporting

Nearby Weather Stations